DLH117P EDDN-LOWW
Flight info
| Callsign | DLH117P |
|---|---|
| Flight time | 0h 53m |
| Altitude | 29000 |
| Route | RODIS1G/28 RODIS L604 LAMSI DCT VENEN VENEN3W |
| Aircraft | A319/M-SDE3FGHIRWY/LB1 |
Departure
| Time | 2026-05-06 17:46 |
|---|---|
| Airport | Nuremberg Airport (EDDN) |
Arrival
| Time | 2026-05-06 18:40 |
|---|---|
| Airport | Vienna International Airport (LOWW) |
| Time | Latitude | Longitude | Altitude | Speed | Heading |
|---|---|---|---|---|---|
| 2026-05-06 17:28 | 49.49521 | 11.07723 | 1027 ft | 0 kts | 188° |
| 2026-05-06 17:34 | 49.49527 | 11.07725 | 1027 ft | 4 kts | 188° |
| 2026-05-06 17:35 | 49.49554 | 11.07731 | 1028 ft | 4 kts | 187° |
| 2026-05-06 17:35 | 49.49580 | 11.07732 | 1028 ft | 4 kts | 159° |
| 2026-05-06 17:35 | 49.49591 | 11.07719 | 1030 ft | 1 kts | 98° |
| 2026-05-06 17:38 | 49.49591 | 11.07720 | 1030 ft | 1 kts | 98° |
| 2026-05-06 17:39 | 49.49587 | 11.07762 | 1029 ft | 9 kts | 98° |
| 2026-05-06 17:39 | 49.49577 | 11.07884 | 1031 ft | 12 kts | 97° |
| 2026-05-06 17:39 | 49.49565 | 11.08013 | 1032 ft | 12 kts | 99° |
| 2026-05-06 17:39 | 49.49550 | 11.08144 | 1032 ft | 13 kts | 99° |
| 2026-05-06 17:40 | 49.49537 | 11.08287 | 1035 ft | 13 kts | 92° |
| 2026-05-06 17:40 | 49.49596 | 11.08363 | 1036 ft | 12 kts | 31° |
| 2026-05-06 17:40 | 49.49611 | 11.08480 | 1038 ft | 11 kts | 96° |
| 2026-05-06 17:40 | 49.49599 | 11.08608 | 1040 ft | 14 kts | 98° |
| 2026-05-06 17:41 | 49.49583 | 11.08765 | 1043 ft | 16 kts | 97° |
| 2026-05-06 17:41 | 49.49566 | 11.08938 | 1045 ft | 16 kts | 99° |
| 2026-05-06 17:41 | 49.49550 | 11.09104 | 1048 ft | 15 kts | 99° |
| 2026-05-06 17:41 | 49.49534 | 11.09259 | 1051 ft | 14 kts | 98° |
| 2026-05-06 17:42 | 49.49540 | 11.09370 | 1054 ft | 8 kts | 67° |
| 2026-05-06 17:42 | 49.49566 | 11.09430 | 1056 ft | 6 kts | 52° |
| 2026-05-06 17:42 | 49.49593 | 11.09485 | 1057 ft | 6 kts | 53° |
| 2026-05-06 17:42 | 49.49596 | 11.09491 | 1058 ft | 0 kts | 52° |
| 2026-05-06 17:43 | 49.49600 | 11.09499 | 1058 ft | 5 kts | 52° |
| 2026-05-06 17:44 | 49.49649 | 11.09563 | 1061 ft | 10 kts | 15° |
| 2026-05-06 17:44 | 49.49701 | 11.09507 | 1060 ft | 11 kts | 289° |
| 2026-05-06 17:44 | 49.49704 | 11.09482 | 1061 ft | 0 kts | 278° |
| 2026-05-06 17:46 | 49.49723 | 11.09286 | 1055 ft | 59 kts | 278° |
| 2026-05-06 17:46 | 49.49831 | 11.08226 | 1034 ft | 138 kts | 278° |
| 2026-05-06 17:46 | 49.50002 | 11.06582 | 1434 ft | 158 kts | 281° |
| 2026-05-06 17:46 | 49.50153 | 11.04918 | 2286 ft | 156 kts | 277° |
| 2026-05-06 17:47 | 49.50300 | 11.03243 | 2977 ft | 165 kts | 278° |
| 2026-05-06 17:47 | 49.50481 | 11.01366 | 3475 ft | 189 kts | 278° |
| 2026-05-06 17:47 | 49.50688 | 10.99269 | 4017 ft | 213 kts | 278° |
| 2026-05-06 17:47 | 49.50922 | 10.96887 | 4605 ft | 238 kts | 278° |
| 2026-05-06 17:48 | 49.51348 | 10.94313 | 5274 ft | 260 kts | 297° |
| 2026-05-06 17:48 | 49.52662 | 10.92347 | 6225 ft | 275 kts | 332° |
| 2026-05-06 17:48 | 49.54541 | 10.91638 | 7225 ft | 283 kts | 354° |
| 2026-05-06 17:48 | 49.56533 | 10.91674 | 8284 ft | 289 kts | 3° |
| 2026-05-06 17:49 | 49.58552 | 10.91973 | 9300 ft | 295 kts | 5° |
| 2026-05-06 17:49 | 49.60616 | 10.92305 | 10249 ft | 300 kts | 4° |
| 2026-05-06 17:49 | 49.62718 | 10.92573 | 11123 ft | 309 kts | 2° |
| 2026-05-06 17:49 | 49.64941 | 10.93033 | 11531 ft | 336 kts | 15° |
| 2026-05-06 17:50 | 49.67085 | 10.94692 | 12152 ft | 353 kts | 37° |
| 2026-05-06 17:50 | 49.68745 | 10.97510 | 13009 ft | 360 kts | 59° |
| 2026-05-06 17:50 | 49.69618 | 11.01127 | 13854 ft | 363 kts | 83° |
| 2026-05-06 17:50 | 49.69628 | 11.04968 | 14638 ft | 364 kts | 96° |
| 2026-05-06 17:51 | 49.69434 | 11.08938 | 15397 ft | 368 kts | 97° |
| 2026-05-06 17:51 | 49.69225 | 11.12843 | 15676 ft | 370 kts | 97° |
| 2026-05-06 17:51 | 49.68998 | 11.16850 | 15771 ft | 370 kts | 98° |
| 2026-05-06 17:51 | 49.68489 | 11.20666 | 15784 ft | 367 kts | 109° |
| 2026-05-06 17:52 | 49.67541 | 11.24295 | 15780 ft | 363 kts | 120° |
| 2026-05-06 17:52 | 49.66319 | 11.27707 | 15781 ft | 363 kts | 122° |
| 2026-05-06 17:52 | 49.65017 | 11.31051 | 15941 ft | 366 kts | 125° |
| 2026-05-06 17:52 | 49.63635 | 11.34368 | 16756 ft | 369 kts | 126° |
| 2026-05-06 17:53 | 49.62213 | 11.37681 | 17574 ft | 372 kts | 126° |
| 2026-05-06 17:53 | 49.60768 | 11.41022 | 18318 ft | 377 kts | 126° |
| 2026-05-06 17:53 | 49.59307 | 11.44405 | 19015 ft | 380 kts | 126° |
| 2026-05-06 17:53 | 49.57844 | 11.47821 | 19714 ft | 384 kts | 126° |
| 2026-05-06 17:54 | 49.56376 | 11.51282 | 20422 ft | 388 kts | 126° |
| 2026-05-06 17:54 | 49.54900 | 11.54775 | 21115 ft | 391 kts | 126° |
| 2026-05-06 17:54 | 49.53407 | 11.58305 | 21827 ft | 395 kts | 126° |
| 2026-05-06 17:54 | 49.51902 | 11.61858 | 22520 ft | 399 kts | 126° |
| 2026-05-06 17:55 | 49.50378 | 11.65447 | 23206 ft | 402 kts | 127° |
| 2026-05-06 17:55 | 49.48837 | 11.69063 | 23789 ft | 406 kts | 127° |
| 2026-05-06 17:55 | 49.47285 | 11.72701 | 24336 ft | 409 kts | 128° |
| 2026-05-06 17:55 | 49.45721 | 11.76368 | 24906 ft | 411 kts | 128° |
| 2026-05-06 17:56 | 49.44141 | 11.80066 | 25469 ft | 414 kts | 128° |
| 2026-05-06 17:56 | 49.42550 | 11.83785 | 26029 ft | 417 kts | 128° |
| 2026-05-06 17:56 | 49.40969 | 11.87472 | 26555 ft | 420 kts | 129° |
| 2026-05-06 17:56 | 49.39359 | 11.91225 | 27094 ft | 422 kts | 129° |
| 2026-05-06 17:57 | 49.37730 | 11.95022 | 27638 ft | 425 kts | 129° |
| 2026-05-06 17:57 | 49.36097 | 11.98820 | 28194 ft | 428 kts | 129° |
| 2026-05-06 17:57 | 49.34453 | 12.02643 | 28622 ft | 431 kts | 129° |
| 2026-05-06 17:57 | 49.32803 | 12.06479 | 28731 ft | 425 kts | 129° |
| 2026-05-06 17:58 | 49.31206 | 12.10197 | 28728 ft | 410 kts | 130° |
| 2026-05-06 17:58 | 49.29640 | 12.13818 | 28744 ft | 407 kts | 130° |
| 2026-05-06 17:58 | 49.26507 | 12.21016 | 28736 ft | 405 kts | 130° |
| 2026-05-06 17:59 | 49.23382 | 12.28192 | 28737 ft | 405 kts | 130° |
| 2026-05-06 17:59 | 49.20255 | 12.35381 | 28734 ft | 405 kts | 130° |
| 2026-05-06 18:00 | 49.17143 | 12.42513 | 28728 ft | 404 kts | 130° |
| 2026-05-06 18:00 | 49.14010 | 12.49645 | 28689 ft | 405 kts | 130° |
| 2026-05-06 18:01 | 49.10862 | 12.56791 | 28697 ft | 406 kts | 130° |
| 2026-05-06 18:01 | 49.07703 | 12.63966 | 28696 ft | 408 kts | 130° |
| 2026-05-06 18:02 | 49.04539 | 12.71145 | 28701 ft | 408 kts | 130° |
| 2026-05-06 18:02 | 49.01364 | 12.78323 | 28700 ft | 408 kts | 130° |
| 2026-05-06 18:03 | 48.98205 | 12.85440 | 28712 ft | 408 kts | 130° |
| 2026-05-06 18:03 | 48.95025 | 12.92579 | 28700 ft | 407 kts | 130° |
| 2026-05-06 18:04 | 48.91835 | 12.99715 | 28702 ft | 408 kts | 130° |
| 2026-05-06 18:04 | 48.88644 | 13.06834 | 28706 ft | 408 kts | 130° |
| 2026-05-06 18:05 | 48.85450 | 13.13947 | 28717 ft | 408 kts | 130° |
| 2026-05-06 18:05 | 48.82251 | 13.21054 | 28698 ft | 407 kts | 130° |
| 2026-05-06 18:06 | 48.80879 | 13.24860 | 28675 ft | 418 kts | 116° |
| 2026-05-06 18:06 | 48.80177 | 13.29192 | 28687 ft | 426 kts | 106° |
| 2026-05-06 18:06 | 48.79102 | 13.37979 | 28690 ft | 427 kts | 105° |
| 2026-05-06 18:07 | 48.78034 | 13.46836 | 28688 ft | 427 kts | 105° |
| 2026-05-06 18:07 | 48.76947 | 13.55710 | 28687 ft | 428 kts | 106° |
| 2026-05-06 18:08 | 48.75843 | 13.64578 | 28642 ft | 428 kts | 107° |
| 2026-05-06 18:08 | 48.74718 | 13.73502 | 28705 ft | 433 kts | 107° |
| 2026-05-06 18:09 | 48.73587 | 13.82487 | 28709 ft | 434 kts | 107° |
| 2026-05-06 18:09 | 48.72459 | 13.91455 | 28578 ft | 431 kts | 107° |
| 2026-05-06 18:10 | 48.71894 | 13.95915 | 27885 ft | 431 kts | 107° |
| 2026-05-06 18:10 | 48.71326 | 14.00376 | 27224 ft | 431 kts | 107° |
| 2026-05-06 18:10 | 48.70952 | 14.03312 | 26883 ft | 428 kts | 107° |
| 2026-05-06 18:10 | 48.70390 | 14.07723 | 26330 ft | 424 kts | 107° |
| 2026-05-06 18:11 | 48.69647 | 14.13508 | 25667 ft | 420 kts | 107° |
| 2026-05-06 18:11 | 48.69270 | 14.16433 | 25353 ft | 417 kts | 107° |
| 2026-05-06 18:11 | 48.68716 | 14.20719 | 24983 ft | 412 kts | 107° |
| 2026-05-06 18:11 | 48.68178 | 14.24892 | 24631 ft | 406 kts | 107° |
| 2026-05-06 18:12 | 48.67636 | 14.29064 | 24210 ft | 403 kts | 107° |
| 2026-05-06 18:12 | 48.67093 | 14.33205 | 23783 ft | 399 kts | 107° |
| 2026-05-06 18:12 | 48.66553 | 14.37307 | 23357 ft | 396 kts | 107° |
| 2026-05-06 18:12 | 48.66016 | 14.41369 | 22874 ft | 393 kts | 107° |
| 2026-05-06 18:13 | 48.65481 | 14.45403 | 22369 ft | 390 kts | 107° |
| 2026-05-06 18:13 | 48.64951 | 14.49402 | 21861 ft | 386 kts | 107° |
| 2026-05-06 18:13 | 48.64425 | 14.53365 | 21405 ft | 383 kts | 107° |
| 2026-05-06 18:13 | 48.63898 | 14.57305 | 20937 ft | 380 kts | 107° |
| 2026-05-06 18:14 | 48.63374 | 14.61212 | 20491 ft | 378 kts | 107° |
| 2026-05-06 18:14 | 48.62855 | 14.65102 | 20021 ft | 376 kts | 107° |
| 2026-05-06 18:14 | 48.62341 | 14.68960 | 19579 ft | 373 kts | 107° |
| 2026-05-06 18:14 | 48.61829 | 14.72801 | 19130 ft | 371 kts | 107° |
| 2026-05-06 18:15 | 48.61315 | 14.76618 | 18691 ft | 370 kts | 107° |
| 2026-05-06 18:15 | 48.60802 | 14.80410 | 18255 ft | 368 kts | 108° |
| 2026-05-06 18:15 | 48.60294 | 14.84135 | 17822 ft | 366 kts | 107° |
| 2026-05-06 18:15 | 48.59776 | 14.87935 | 17368 ft | 363 kts | 107° |
| 2026-05-06 18:16 | 48.59272 | 14.91655 | 16934 ft | 360 kts | 107° |
| 2026-05-06 18:16 | 48.58778 | 14.95299 | 16700 ft | 358 kts | 106° |
| 2026-05-06 18:16 | 48.58276 | 14.98987 | 16718 ft | 358 kts | 107° |
| 2026-05-06 18:16 | 48.57772 | 15.02663 | 16720 ft | 358 kts | 107° |
| 2026-05-06 18:17 | 48.57266 | 15.06344 | 16718 ft | 357 kts | 107° |
| 2026-05-06 18:17 | 48.56758 | 15.10022 | 16720 ft | 357 kts | 107° |
| 2026-05-06 18:17 | 48.56247 | 15.13694 | 16719 ft | 357 kts | 107° |
| 2026-05-06 18:17 | 48.55739 | 15.17343 | 16390 ft | 354 kts | 107° |
| 2026-05-06 18:18 | 48.55233 | 15.20980 | 15962 ft | 352 kts | 106° |
| 2026-05-06 18:18 | 48.54736 | 15.24535 | 15562 ft | 350 kts | 106° |
| 2026-05-06 18:18 | 48.54234 | 15.28123 | 15156 ft | 348 kts | 106° |
| 2026-05-06 18:18 | 48.53734 | 15.31685 | 14772 ft | 345 kts | 105° |
| 2026-05-06 18:19 | 48.53241 | 15.35204 | 14706 ft | 342 kts | 105° |
| 2026-05-06 18:19 | 48.52747 | 15.38717 | 14715 ft | 342 kts | 105° |
| 2026-05-06 18:19 | 48.52253 | 15.42220 | 14718 ft | 342 kts | 105° |
| 2026-05-06 18:19 | 48.51905 | 15.45790 | 14718 ft | 345 kts | 98° |
| 2026-05-06 18:20 | 48.51709 | 15.49406 | 14717 ft | 345 kts | 98° |
| 2026-05-06 18:20 | 48.51511 | 15.53009 | 14715 ft | 345 kts | 98° |
| 2026-05-06 18:20 | 48.51307 | 15.56618 | 14717 ft | 345 kts | 98° |
| 2026-05-06 18:20 | 48.51102 | 15.60222 | 14705 ft | 344 kts | 98° |
| 2026-05-06 18:21 | 48.50899 | 15.63803 | 14358 ft | 341 kts | 98° |
| 2026-05-06 18:21 | 48.50697 | 15.67353 | 13981 ft | 339 kts | 98° |
| 2026-05-06 18:21 | 48.50494 | 15.70885 | 13623 ft | 336 kts | 98° |
| 2026-05-06 18:21 | 48.50292 | 15.74391 | 13226 ft | 334 kts | 98° |
| 2026-05-06 18:22 | 48.50091 | 15.77856 | 12848 ft | 330 kts | 98° |
| 2026-05-06 18:22 | 48.49892 | 15.81253 | 12459 ft | 328 kts | 98° |
| 2026-05-06 18:22 | 48.49693 | 15.84612 | 12278 ft | 315 kts | 98° |
| 2026-05-06 18:22 | 48.49500 | 15.87872 | 11997 ft | 310 kts | 98° |
| 2026-05-06 18:23 | 48.49307 | 15.91097 | 11741 ft | 308 kts | 98° |
| 2026-05-06 18:23 | 48.49111 | 15.94319 | 11718 ft | 308 kts | 99° |
| 2026-05-06 18:23 | 48.48911 | 15.97545 | 11725 ft | 309 kts | 99° |
| 2026-05-06 18:23 | 48.48711 | 16.00766 | 11725 ft | 309 kts | 99° |
| 2026-05-06 18:24 | 48.48514 | 16.03975 | 11456 ft | 306 kts | 98° |
| 2026-05-06 18:24 | 48.48321 | 16.07171 | 11084 ft | 305 kts | 99° |
| 2026-05-06 18:24 | 48.47994 | 16.10311 | 10714 ft | 301 kts | 108° |
| 2026-05-06 18:24 | 48.47326 | 16.13272 | 10350 ft | 297 kts | 114° |
| 2026-05-06 18:25 | 48.46595 | 16.16192 | 9963 ft | 296 kts | 114° |
| 2026-05-06 18:25 | 48.45873 | 16.19096 | 9580 ft | 294 kts | 114° |
| 2026-05-06 18:25 | 48.45164 | 16.21974 | 9171 ft | 292 kts | 115° |
| 2026-05-06 18:25 | 48.44458 | 16.24830 | 8755 ft | 290 kts | 115° |
| 2026-05-06 18:26 | 48.43761 | 16.27642 | 8318 ft | 290 kts | 115° |
| 2026-05-06 18:26 | 48.43058 | 16.30479 | 7879 ft | 288 kts | 115° |
| 2026-05-06 18:26 | 48.42248 | 16.33212 | 7423 ft | 284 kts | 124° |
| 2026-05-06 18:26 | 48.41060 | 16.35539 | 6995 ft | 278 kts | 138° |
| 2026-05-06 18:27 | 48.39599 | 16.37395 | 6543 ft | 273 kts | 151° |
| 2026-05-06 18:27 | 48.37921 | 16.38567 | 6320 ft | 256 kts | 167° |
| 2026-05-06 18:27 | 48.36251 | 16.39042 | 6139 ft | 237 kts | 182° |
| 2026-05-06 18:27 | 48.34655 | 16.38754 | 6004 ft | 228 kts | 199° |
| 2026-05-06 18:28 | 48.33240 | 16.37760 | 5987 ft | 223 kts | 217° |
| 2026-05-06 18:28 | 48.32124 | 16.36176 | 5988 ft | 222 kts | 233° |
| 2026-05-06 18:28 | 48.31392 | 16.34136 | 5978 ft | 223 kts | 250° |
| 2026-05-06 18:28 | 48.31125 | 16.31928 | 5972 ft | 206 kts | 263° |
| 2026-05-06 18:29 | 48.31005 | 16.29796 | 5976 ft | 203 kts | 262° |
| 2026-05-06 18:29 | 48.30877 | 16.27689 | 5862 ft | 202 kts | 263° |
| 2026-05-06 18:29 | 48.30933 | 16.25566 | 5518 ft | 205 kts | 274° |
| 2026-05-06 18:29 | 48.31289 | 16.23480 | 5157 ft | 208 kts | 285° |
| 2026-05-06 18:30 | 48.31899 | 16.21525 | 4977 ft | 206 kts | 291° |
| 2026-05-06 18:30 | 48.32528 | 16.19591 | 4972 ft | 210 kts | 290° |
| 2026-05-06 18:30 | 48.33162 | 16.17621 | 4960 ft | 209 kts | 290° |
| 2026-05-06 18:30 | 48.33781 | 16.15699 | 4951 ft | 197 kts | 289° |
| 2026-05-06 18:31 | 48.34360 | 16.13902 | 4953 ft | 188 kts | 288° |
| 2026-05-06 18:31 | 48.34522 | 16.12057 | 4965 ft | 176 kts | 251° |
| 2026-05-06 18:31 | 48.33825 | 16.10612 | 5046 ft | 175 kts | 211° |
| 2026-05-06 18:31 | 48.32627 | 16.10295 | 5173 ft | 185 kts | 172° |
| 2026-05-06 18:32 | 48.31513 | 16.11327 | 5394 ft | 200 kts | 133° |
| 2026-05-06 18:32 | 48.30951 | 16.13322 | 5580 ft | 215 kts | 109° |
| 2026-05-06 18:32 | 48.30363 | 16.15298 | 5399 ft | 201 kts | 139° |
| 2026-05-06 18:32 | 48.29307 | 16.16569 | 5147 ft | 193 kts | 153° |
| 2026-05-06 18:33 | 48.28183 | 16.17626 | 4991 ft | 189 kts | 155° |
| 2026-05-06 18:33 | 48.27053 | 16.18652 | 4979 ft | 191 kts | 155° |
| 2026-05-06 18:33 | 48.25915 | 16.19680 | 4980 ft | 191 kts | 155° |
| 2026-05-06 18:33 | 48.24776 | 16.20711 | 4980 ft | 191 kts | 155° |
| 2026-05-06 18:34 | 48.23639 | 16.21740 | 4976 ft | 191 kts | 155° |
| 2026-05-06 18:34 | 48.22505 | 16.22791 | 4957 ft | 194 kts | 150° |
| 2026-05-06 18:34 | 48.21624 | 16.24371 | 4819 ft | 204 kts | 124° |
| 2026-05-06 18:34 | 48.21004 | 16.26295 | 4577 ft | 207 kts | 121° |
| 2026-05-06 18:35 | 48.20390 | 16.28237 | 4296 ft | 210 kts | 122° |
| 2026-05-06 18:35 | 48.19756 | 16.30216 | 4017 ft | 211 kts | 122° |
| 2026-05-06 18:35 | 48.19116 | 16.32205 | 3728 ft | 212 kts | 123° |
| 2026-05-06 18:35 | 48.18489 | 16.34157 | 3467 ft | 203 kts | 123° |
| 2026-05-06 18:36 | 48.17890 | 16.36018 | 3179 ft | 195 kts | 123° |
| 2026-05-06 18:36 | 48.17307 | 16.37822 | 2921 ft | 190 kts | 123° |
| 2026-05-06 18:36 | 48.16735 | 16.39589 | 2680 ft | 186 kts | 124° |
| 2026-05-06 18:36 | 48.16195 | 16.41270 | 2430 ft | 169 kts | 124° |
| 2026-05-06 18:37 | 48.15707 | 16.42784 | 2211 ft | 152 kts | 124° |
| 2026-05-06 18:37 | 48.15411 | 16.43699 | 2042 ft | 142 kts | 129° |
| 2026-05-06 18:37 | 48.14856 | 16.45412 | 1794 ft | 132 kts | 130° |
| 2026-05-06 18:37 | 48.14465 | 16.46614 | 1623 ft | 126 kts | 128° |
| 2026-05-06 18:38 | 48.14078 | 16.47800 | 1444 ft | 131 kts | 125° |
| 2026-05-06 18:38 | 48.13686 | 16.49006 | 1273 ft | 130 kts | 125° |
| 2026-05-06 18:38 | 48.13288 | 16.50231 | 1098 ft | 129 kts | 121° |
| 2026-05-06 18:38 | 48.12893 | 16.51446 | 923 ft | 133 kts | 122° |
| 2026-05-06 18:39 | 48.12494 | 16.52686 | 742 ft | 133 kts | 124° |
| 2026-05-06 18:39 | 48.12101 | 16.53920 | 622 ft | 128 kts | 121° |
| 2026-05-06 18:39 | 48.11751 | 16.54903 | 610 ft | 84 kts | 115° |
| 2026-05-06 18:40 | 48.11500 | 16.55850 | 622 ft | 40 kts | 95° |
| 2026-05-06 18:40 | 48.11538 | 16.56131 | 620 ft | 7 kts | 27° |
| 2026-05-06 18:40 | 48.11539 | 16.56132 | 620 ft | 0 kts | 27° |
| 2026-05-06 18:42 | 48.11540 | 16.56133 | 620 ft | 1 kts | 27° |
| 2026-05-06 18:43 | 48.11542 | 16.56135 | 619 ft | 0 kts | 33° |
| 2026-05-06 18:43 | 48.11559 | 16.56151 | 616 ft | 6 kts | 30° |
| 2026-05-06 18:43 | 48.11615 | 16.56195 | 623 ft | 12 kts | 31° |
| 2026-05-06 18:43 | 48.11709 | 16.56278 | 612 ft | 20 kts | 26° |
| 2026-05-06 18:44 | 48.11732 | 16.56447 | 605 ft | 20 kts | 116° |
| 2026-05-06 18:44 | 48.11673 | 16.56631 | 620 ft | 20 kts | 115° |
| 2026-05-06 18:44 | 48.11615 | 16.56810 | 614 ft | 17 kts | 117° |
| 2026-05-06 18:44 | 48.11605 | 16.56897 | 615 ft | 8 kts | 36° |
| 2026-05-06 18:45 | 48.11662 | 16.56955 | 605 ft | 4 kts | 25° |
| 2026-05-06 18:45 | 48.11662 | 16.56956 | 605 ft | 0 kts | 25° |